KBEH/BEH METAR and TAF weather

Enter ICAO airport designator
Station Type Date Time Source
KBEH METAR 2019/05/19 19:53 UTC NOAA

KBEH 191953Z AUTO 21012G22KT 10SM SCT025 BKN034 BKN045 23/16 A2959 RMK AO2 PK WND 21026/1941 LTG DSNT W SLP017 T02280161 $


Station Type Date Time Source
KBEH Decoded METAR 2019/05/19 19:53 UTC NOAA

SOUTHWEST MICHIGAN REGIONAL, MI, United States (KBEH) 42-08N 86-25W 191M
May 19, 2019 - 03:53 PM EDT / 2019.05.19 1953 UTC
Wind: from the SSW (210 degrees) at 14 MPH (12 KT) gusting to 25 MPH (22 KT):0
Visibility: 10 mile(s):0
Sky conditions: mostly cloudy
Weather: Lightning observed
Temperature: 73.0 F (22.8 C)
Dew Point: 61.0 F (16.1 C)
Relative Humidity: 65%
Pressure (altimeter): 29.59 in. Hg (1002 hPa)
ob: KBEH 191953Z AUTO 21012G22KT 10SM SCT025 BKN034 BKN045 23/16 A2959 RMK AO2 PK WND 21026/1941 LTG DSNT W SLP017 T02280161
cycle: 20

Station Type Date Time Source
KBEH TAF UTC NOAA

Error!

Example: see airport list